createdAt,value
2019-03-23T00:01:42.734Z,99774.36
2019-03-23T00:04:15.811Z,99777.89
2019-03-23T00:06:47.653Z,99781.74
2019-03-23T00:09:21.226Z,99777.20
2019-03-23T00:11:55.952Z,99784.70
2019-03-23T00:14:29.611Z,99777.17
2019-03-23T00:17:02.591Z,99778.55
2019-03-23T00:19:35.657Z,99775.45
2019-03-23T00:22:08.600Z,99775.53
2019-03-23T00:24:41.580Z,99773.26
2019-03-23T00:27:14.816Z,99772.36
2019-03-23T00:29:48.265Z,99769.17
2019-03-23T00:32:20.636Z,99774.84
2019-03-23T00:34:53.590Z,99774.56
2019-03-23T00:37:27.594Z,99778.73
2019-03-23T00:40:01.677Z,99775.46
2019-03-23T00:42:34.735Z,99771.66
2019-03-23T00:45:09.547Z,99775.01
2019-03-23T00:47:41.831Z,99777.33
2019-03-23T00:50:15.004Z,99775.05
2019-03-23T00:52:50.458Z,99771.45
2019-03-23T00:55:24.889Z,99767.23
2019-03-23T00:57:56.888Z,99762.31
2019-03-23T01:00:29.857Z,99765.86
2019-03-23T01:03:03.852Z,99766.03
2019-03-23T01:05:35.877Z,99768.75
2019-03-23T01:08:08.758Z,99762.00
2019-03-23T01:10:45.956Z,99768.45
2019-03-23T01:13:17.798Z,99764.89
2019-03-23T01:15:50.907Z,99766.95
2019-03-23T01:18:23.262Z,99761.08
2019-03-23T01:20:56.955Z,99759.13
2019-03-23T01:23:30.002Z,99760.98
2019-03-23T01:26:04.118Z,99757.75
2019-03-23T01:28:35.922Z,99756.50
2019-03-23T01:31:08.997Z,99758.38
2019-03-23T01:33:42.045Z,99748.66
2019-03-23T01:36:14.909Z,99750.16
2019-03-23T01:38:49.127Z,99751.18
2019-03-23T01:41:23.130Z,99748.90
2019-03-23T01:43:58.657Z,99744.60
2019-03-23T01:46:32.913Z,99742.82
2019-03-23T01:49:05.368Z,99742.39
2019-03-23T01:51:39.042Z,99740.11
2019-03-23T01:54:12.089Z,99737.47
2019-03-23T01:56:45.886Z,99734.19
2019-03-23T01:59:18.230Z,99737.50
2019-03-23T02:01:51.325Z,99732.58
2019-03-23T02:04:24.220Z,99738.22
2019-03-23T02:06:56.097Z,99734.95
2019-03-23T02:09:28.168Z,99729.37
2019-03-23T02:12:01.567Z,99735.02
2019-03-23T02:14:37.666Z,99730.12
2019-03-23T02:17:12.241Z,99728.66
2019-03-23T02:19:44.191Z,99725.39
2019-03-23T02:22:18.259Z,99728.20
2019-03-23T02:24:51.238Z,99731.20
2019-03-23T02:27:25.597Z,99717.86
2019-03-23T02:29:59.686Z,99709.50
2019-03-23T02:32:32.313Z,99712.00
2019-03-23T02:35:06.010Z,99725.05
2019-03-23T02:37:40.707Z,99718.14
2019-03-23T02:40:15.325Z,99716.33
2019-03-23T02:42:48.394Z,99719.46
2019-03-23T02:45:20.767Z,99716.82
2019-03-23T02:47:54.501Z,99716.98
2019-03-23T02:50:27.367Z,99715.03
2019-03-23T02:52:59.492Z,99715.23
2019-03-23T02:55:32.306Z,99718.36
2019-03-23T02:58:04.312Z,99715.59
2019-03-23T03:00:37.454Z,99713.60
2019-03-23T03:03:11.370Z,99709.37
2019-03-23T03:05:45.350Z,99718.61
2019-03-23T03:08:17.314Z,99714.70
2019-03-23T03:10:50.412Z,99717.70
2019-03-23T03:13:25.337Z,99715.42
2019-03-23T03:15:57.705Z,99715.09
2019-03-23T03:18:29.955Z,99714.45
2019-03-23T03:21:03.558Z,99721.41
2019-03-23T03:23:37.696Z,99722.40
2019-03-23T03:26:11.568Z,99727.19
2019-03-23T03:28:43.498Z,99728.70
2019-03-23T03:31:15.486Z,99727.88
2019-03-23T03:33:47.968Z,99723.77
2019-03-23T03:36:22.309Z,99723.14
2019-03-23T03:38:54.771Z,99723.80
2019-03-23T03:41:26.682Z,99718.08
2019-03-23T03:43:58.530Z,99717.60
2019-03-23T03:46:30.663Z,99728.70
2019-03-23T03:49:12.240Z,99724.27
2019-03-23T03:51:38.623Z,99726.58
2019-03-23T03:54:11.625Z,99726.30
2019-03-23T03:56:45.674Z,99732.56
2019-03-23T03:59:17.851Z,99737.39
2019-03-23T04:01:50.638Z,99733.98
2019-03-23T04:04:22.470Z,99730.40
2019-03-23T04:06:56.698Z,99731.09
2019-03-23T04:09:29.701Z,99732.13
2019-03-23T04:12:03.880Z,99732.32
2019-03-23T04:14:35.754Z,99734.81
2019-03-23T04:17:08.815Z,99741.75
2019-03-23T04:19:41.907Z,99742.43
2019-03-23T04:22:14.745Z,99746.05
2019-03-23T04:24:47.634Z,99745.91
2019-03-23T04:27:23.097Z,99746.09
2019-03-23T04:29:56.830Z,99745.95
2019-03-23T04:32:29.879Z,99754.36
2019-03-23T04:35:07.097Z,99754.06
2019-03-23T04:37:41.730Z,99756.70
2019-03-23T04:40:14.911Z,99760.31
2019-03-23T04:42:48.894Z,99760.50
2019-03-23T04:45:22.364Z,99766.94
2019-03-23T04:47:55.908Z,99765.97
2019-03-23T04:50:30.125Z,99771.28
2019-03-23T04:53:03.001Z,99771.43
2019-03-23T04:55:36.383Z,99778.39
2019-03-23T04:58:09.022Z,99777.87
2019-03-23T05:00:40.925Z,99775.75
2019-03-23T05:03:15.392Z,99779.22
2019-03-23T05:05:48.191Z,99771.98
2019-03-23T05:08:21.063Z,99772.33
2019-03-23T05:10:54.117Z,99775.45
2019-03-23T05:13:27.080Z,99778.91
2019-03-23T05:15:58.955Z,99783.66
2019-03-23T05:18:33.028Z,99778.73
2019-03-23T05:21:05.855Z,99778.73
2019-03-23T05:23:40.657Z,99780.16
2019-03-23T05:26:15.511Z,99788.72
2019-03-23T05:28:49.767Z,99791.31
2019-03-23T05:31:24.232Z,99792.94
2019-03-23T05:33:57.564Z,99791.57
2019-03-23T05:36:30.301Z,99798.61
2019-03-23T05:39:06.305Z,99795.09
2019-03-23T05:41:39.152Z,99795.37
2019-03-23T05:44:12.643Z,99799.28
2019-03-23T05:46:47.193Z,99807.15
2019-03-23T05:49:21.245Z,99810.37
2019-03-23T05:51:54.599Z,99805.36
2019-03-23T05:54:27.259Z,99801.48
2019-03-23T05:57:01.323Z,99802.58
2019-03-23T05:59:37.730Z,99799.67
2019-03-23T06:02:12.247Z,99803.59
2019-03-23T06:04:46.400Z,99805.97
2019-03-23T06:07:21.863Z,99803.72
2019-03-23T06:09:55.282Z,99798.32
2019-03-23T06:12:27.201Z,99802.00
2019-03-23T06:14:59.366Z,99796.33
2019-03-23T06:17:35.009Z,99805.29
2019-03-23T06:20:09.760Z,99798.09
2019-03-23T06:22:43.383Z,99800.97
2019-03-23T06:25:15.519Z,99801.27
2019-03-23T06:27:50.017Z,99799.55
2019-03-23T06:30:23.531Z,99805.36
2019-03-23T06:32:59.339Z,99804.59
2019-03-23T06:35:31.363Z,99805.27
2019-03-23T06:38:03.723Z,99806.94
2019-03-23T06:40:36.280Z,99803.05
2019-03-23T06:43:09.600Z,99804.05
2019-03-23T06:45:42.670Z,99803.97
2019-03-23T06:48:15.563Z,99802.20
2019-03-23T06:50:48.348Z,99800.74
2019-03-23T06:53:21.517Z,99799.49
2019-03-23T06:55:53.430Z,99801.43
2019-03-23T06:58:27.897Z,99805.22
2019-03-23T07:01:00.722Z,99801.66
2019-03-23T07:03:33.629Z,99805.06
2019-03-23T07:06:05.562Z,99802.05
2019-03-23T07:08:39.559Z,99800.80
2019-03-23T07:11:13.369Z,99805.77
2019-03-23T07:13:45.567Z,99781.94
2019-03-23T07:16:18.678Z,99809.26
2019-03-23T07:18:51.525Z,99815.05
2019-03-23T07:21:24.684Z,99811.95
2019-03-23T07:23:56.882Z,99813.10
2019-03-23T07:26:30.734Z,99810.02
2019-03-23T07:29:04.756Z,99816.30
2019-03-23T07:31:36.636Z,99813.98
2019-03-23T07:34:09.745Z,99811.55
2019-03-23T07:36:42.331Z,99816.09
2019-03-23T07:39:26.451Z,99818.44
2019-03-23T07:41:54.273Z,99817.13
2019-03-23T07:44:27.680Z,99811.08
2019-03-23T07:47:00.664Z,99808.43
2019-03-23T07:49:32.752Z,99806.77
2019-03-23T07:52:04.691Z,99803.48
2019-03-23T07:54:36.818Z,99808.61
2019-03-23T07:57:09.979Z,99807.88
2019-03-23T07:59:42.751Z,99809.39
2019-03-23T08:02:15.609Z,99804.52
2019-03-23T08:04:49.530Z,99802.20
2019-03-23T08:07:23.761Z,99804.44
2019-03-23T08:09:55.748Z,99805.12
2019-03-23T08:12:28.775Z,99800.99
2019-03-23T08:15:02.899Z,99789.16
2019-03-23T08:17:37.042Z,99791.28
2019-03-23T08:20:12.131Z,99786.06
2019-03-23T08:22:45.803Z,99785.04
2019-03-23T08:25:19.296Z,99786.92
2019-03-23T08:27:55.732Z,99777.08
2019-03-23T08:30:28.143Z,99783.53
2019-03-23T08:33:02.821Z,99779.68
2019-03-23T08:35:36.067Z,99788.33
2019-03-23T08:38:08.901Z,99781.89
2019-03-23T08:40:43.862Z,99779.97
2019-03-23T08:43:18.031Z,99782.03
2019-03-23T08:45:51.190Z,99789.66
2019-03-23T08:48:26.735Z,99788.56
2019-03-23T08:51:01.417Z,99779.08
2019-03-23T08:53:33.416Z,99786.77
2019-03-23T08:56:05.984Z,99789.51
2019-03-23T08:58:38.427Z,99779.26
2019-03-23T09:01:12.182Z,99778.34
2019-03-23T09:03:52.481Z,99771.53
2019-03-23T09:06:20.932Z,99771.86
2019-03-23T09:08:54.132Z,99762.45
2019-03-23T09:11:27.179Z,99765.58
2019-03-23T09:13:59.081Z,99766.73
2019-03-23T09:16:33.212Z,99762.19
2019-03-23T09:19:06.683Z,99765.27
2019-03-23T09:21:39.134Z,99766.06
2019-03-23T09:24:12.304Z,99765.09
2019-03-23T09:26:45.126Z,99765.75
2019-03-23T09:29:17.309Z,99755.44
2019-03-23T09:31:51.640Z,99753.46
2019-03-23T09:34:25.287Z,99746.23
2019-03-23T09:36:59.623Z,99749.88
2019-03-23T09:39:32.135Z,99752.48
2019-03-23T09:42:04.546Z,99747.67
2019-03-23T09:44:36.675Z,99743.10
2019-03-23T09:47:09.363Z,99738.94
2019-03-23T09:49:42.096Z,99738.47
2019-03-23T09:52:15.470Z,99739.89
2019-03-23T09:54:48.214Z,99735.43
2019-03-23T09:57:21.354Z,99735.43
2019-03-23T09:59:54.837Z,99629.73
2019-03-23T10:02:28.211Z,99732.30
2019-03-23T10:05:01.362Z,99731.67
2019-03-23T10:07:33.293Z,99736.54
2019-03-23T10:10:06.734Z,99726.52
2019-03-23T10:12:40.477Z,99720.33
2019-03-23T10:15:13.300Z,99715.67
2019-03-23T10:18:03.622Z,99713.12
2019-03-23T10:20:53.698Z,99706.18
2019-03-23T10:23:44.825Z,99697.36
2019-03-23T10:26:35.034Z,99698.10
2019-03-23T10:29:24.856Z,99692.27
2019-03-23T10:32:15.026Z,99688.45
2019-03-23T10:35:06.305Z,99682.92
2019-03-23T10:37:56.215Z,99674.54
2019-03-23T10:40:46.346Z,99602.55
2019-03-23T10:43:38.982Z,99668.54
2019-03-23T10:46:29.147Z,99667.17
2019-03-23T10:49:19.074Z,99665.04
2019-03-23T10:52:09.350Z,99665.55
2019-03-23T10:54:43.060Z,99656.88
2019-03-23T10:57:17.533Z,99657.61
2019-03-23T10:59:50.405Z,99657.87
2019-03-23T11:02:23.525Z,99649.78
2019-03-23T11:04:58.247Z,99636.23
2019-03-23T11:07:32.521Z,99638.09
2019-03-23T11:10:04.569Z,99639.22
2019-03-23T11:12:37.360Z,99636.55
2019-03-23T11:15:10.755Z,99642.83
2019-03-23T11:17:44.455Z,99640.67
2019-03-23T11:20:17.349Z,99636.63
2019-03-23T11:22:49.701Z,99632.75
2019-03-23T11:25:22.956Z,99633.53
2019-03-23T11:27:57.481Z,99628.37
2019-03-23T11:30:31.470Z,99622.13
2019-03-23T11:33:03.369Z,99624.50
2019-03-23T11:35:36.570Z,99621.50
2019-03-23T11:38:10.161Z,99613.92
2019-03-23T11:40:52.760Z,99601.72
2019-03-23T11:43:19.541Z,99601.72
2019-03-23T11:45:53.543Z,99592.25
2019-03-23T11:48:25.523Z,99599.20
2019-03-23T11:50:58.790Z,99579.94
2019-03-23T11:53:31.589Z,99584.08
2019-03-23T11:56:05.506Z,99574.89
2019-03-23T11:58:38.673Z,99571.25
2019-03-23T12:01:12.691Z,99567.63
2019-03-23T12:03:51.765Z,99569.25
2019-03-23T12:06:23.725Z,99561.62
2019-03-23T12:08:55.649Z,99550.80
2019-03-23T12:11:27.787Z,99552.44
2019-03-23T12:14:03.726Z,99544.16
2019-03-23T12:16:35.643Z,99535.64
2019-03-23T12:19:09.906Z,99532.09
2019-03-23T12:21:43.783Z,99536.02
2019-03-23T12:24:15.788Z,99537.31
2019-03-23T12:26:49.833Z,99536.53
2019-03-23T12:29:24.373Z,99524.88
2019-03-23T12:31:59.033Z,99526.57
2019-03-23T12:34:32.294Z,99528.16
2019-03-23T12:37:04.719Z,99527.64
2019-03-23T12:39:37.650Z,99515.31
2019-03-23T12:42:09.803Z,99511.51
2019-03-23T12:44:43.819Z,99509.81
2019-03-23T12:47:16.787Z,99510.93
2019-03-23T12:49:50.148Z,99506.02
2019-03-23T12:52:22.851Z,99495.31
2019-03-23T12:54:54.807Z,99488.72
2019-03-23T12:57:28.821Z,99491.59
2019-03-23T13:00:03.230Z,99495.08
2019-03-23T13:02:37.893Z,99486.52
2019-03-23T13:05:10.764Z,99483.88
2019-03-23T13:07:43.718Z,99488.34
2019-03-23T13:10:17.196Z,99477.56
2019-03-23T13:12:49.931Z,99475.36
2019-03-23T13:15:23.734Z,99477.95
2019-03-23T13:17:57.005Z,99470.36
2019-03-23T13:23:09.664Z,99460.85
2019-03-23T13:25:41.995Z,99459.30
2019-03-23T13:28:13.918Z,99466.64
2019-03-23T13:30:47.292Z,99467.59
2019-03-23T13:33:20.035Z,99461.70
2019-03-23T13:35:51.940Z,99452.11
2019-03-23T13:38:26.154Z,99449.77
2019-03-23T13:41:00.102Z,99460.00
2019-03-23T13:43:31.901Z,99449.30
2019-03-23T13:46:05.949Z,99444.79
2019-03-23T13:48:37.990Z,99445.95
2019-03-23T13:51:12.051Z,99439.78
2019-03-23T13:53:43.924Z,99430.09
2019-03-23T13:56:17.085Z,99435.34
2019-03-23T13:58:49.073Z,99424.54
2019-03-23T14:01:23.610Z,99424.65
2019-03-23T14:03:57.221Z,99434.59
2019-03-23T14:06:32.075Z,99420.44
2019-03-23T14:09:05.346Z,99431.52
2019-03-23T14:11:40.228Z,99410.84
2019-03-23T14:14:13.079Z,99409.68
2019-03-23T14:16:45.144Z,99402.67
2019-03-23T14:19:17.044Z,99401.47
2019-03-23T14:21:49.070Z,99408.01
2019-03-23T14:24:23.071Z,99394.38
2019-03-23T14:26:58.027Z,99399.73
2019-03-23T14:29:33.498Z,99396.75
2019-03-23T14:32:08.141Z,99391.67
2019-03-23T14:34:41.173Z,99383.34
2019-03-23T14:37:13.751Z,99379.75
2019-03-23T14:39:47.162Z,99377.58
2019-03-23T14:42:20.149Z,99379.87
2019-03-23T14:44:53.383Z,99379.05
2019-03-23T14:47:26.356Z,99377.27
2019-03-23T14:49:59.232Z,99376.73
2019-03-23T14:52:32.369Z,99374.09
2019-03-23T14:55:07.014Z,99387.09
2019-03-23T14:57:40.519Z,99386.63
2019-03-23T15:00:13.655Z,99383.92
2019-03-23T15:02:45.790Z,99381.52
2019-03-23T15:05:22.050Z,99372.81
2019-03-23T15:07:56.993Z,99377.28
2019-03-23T15:10:28.916Z,99371.13
2019-03-23T15:13:02.561Z,99372.88
2019-03-23T15:15:36.482Z,99368.55
2019-03-23T15:18:09.590Z,99380.05
2019-03-23T15:20:42.966Z,99375.30
2019-03-23T15:23:17.717Z,99373.64
2019-03-23T15:25:51.580Z,99376.92
2019-03-23T15:28:25.312Z,99372.64
2019-03-23T15:30:59.574Z,99368.02
2019-03-23T15:33:32.556Z,99366.42
2019-03-23T15:36:05.304Z,99368.95
2019-03-23T15:38:38.784Z,99380.39
2019-03-23T15:41:13.862Z,99377.52
2019-03-23T15:43:45.794Z,99175.33
2019-03-23T15:46:17.870Z,99382.97
2019-03-23T15:48:50.800Z,99379.83
2019-03-23T15:51:24.456Z,99374.91
2019-03-23T15:53:56.655Z,99379.06
2019-03-23T15:56:28.878Z,99381.31
2019-03-23T15:59:00.863Z,99390.91
2019-03-23T16:01:35.543Z,99384.72
2019-03-23T16:04:09.195Z,99385.06
2019-03-23T16:06:43.566Z,99386.70
2019-03-23T16:09:17.590Z,99388.07
2019-03-23T16:11:52.821Z,99382.39
2019-03-23T16:14:26.620Z,99384.55
2019-03-23T16:16:58.669Z,99392.23
2019-03-23T16:19:32.764Z,99388.47
2019-03-23T16:22:06.693Z,99390.14
2019-03-23T16:24:39.674Z,99406.37
2019-03-23T16:27:13.646Z,99408.27
2019-03-23T16:29:47.746Z,99402.11
2019-03-23T16:32:21.147Z,99402.65
2019-03-23T16:34:54.802Z,99401.88
2019-03-23T16:37:26.893Z,99407.04
2019-03-23T16:39:59.848Z,99412.72
2019-03-23T16:42:32.967Z,99415.45
2019-03-23T16:45:08.057Z,99422.70
2019-03-23T16:47:41.842Z,99414.88
2019-03-23T16:50:13.798Z,99417.56
2019-03-23T16:52:47.824Z,99425.65
2019-03-23T16:55:21.204Z,99419.98
2019-03-23T16:57:57.356Z,99423.20
2019-03-23T17:00:36.548Z,99419.92
2019-03-23T17:03:11.012Z,99414.77
2019-03-23T17:05:43.940Z,99410.16
2019-03-23T17:08:16.923Z,99400.37
2019-03-23T17:10:49.199Z,99402.48
2019-03-23T17:13:22.954Z,99405.91
2019-03-23T17:15:55.866Z,99400.17
2019-03-23T17:18:28.902Z,99397.13
2019-03-23T17:21:03.059Z,99390.27
2019-03-23T17:23:34.895Z,99386.13
2019-03-23T17:26:09.574Z,99388.69
2019-03-23T17:28:44.090Z,99386.69
2019-03-23T17:31:17.172Z,99389.80
2019-03-23T17:33:51.802Z,99379.72
2019-03-23T17:36:28.608Z,99382.31
2019-03-23T17:39:02.082Z,99381.14
2019-03-23T17:41:35.245Z,99386.94
2019-03-23T17:44:10.298Z,99394.08
2019-03-23T17:46:43.301Z,99394.17
2019-03-23T17:49:17.219Z,99397.77
2019-03-23T17:51:52.633Z,99402.20
2019-03-23T17:54:26.189Z,99402.50
2019-03-23T17:56:59.812Z,99406.40
2019-03-23T17:59:32.579Z,99406.49
2019-03-23T18:02:05.153Z,99404.46
2019-03-23T18:04:39.820Z,99407.30
2019-03-23T18:07:12.305Z,99408.75
2019-03-23T18:09:45.202Z,99406.48
2019-03-23T18:12:17.195Z,99415.19
2019-03-23T18:14:49.376Z,99414.86
2019-03-23T18:17:24.424Z,99422.52
2019-03-23T18:19:58.891Z,99419.42
2019-03-23T18:22:32.347Z,99418.74
2019-03-23T18:25:05.874Z,99423.79
2019-03-23T18:27:40.261Z,99423.97
2019-03-23T18:30:41.230Z,99420.95
2019-03-23T18:33:14.160Z,99417.49
2019-03-23T18:35:47.995Z,99422.73
2019-03-23T18:38:20.601Z,99421.90
2019-03-23T18:40:53.330Z,99432.78
2019-03-23T18:43:27.684Z,99428.95
2019-03-23T18:46:02.264Z,99425.58
2019-03-23T18:48:36.960Z,99425.97
2019-03-23T18:51:12.226Z,99434.64
2019-03-23T18:53:44.520Z,99434.80
2019-03-23T18:56:17.409Z,99441.14
2019-03-23T18:58:50.328Z,99440.17
2019-03-23T19:01:23.497Z,99446.92
2019-03-23T19:03:59.120Z,99455.31
2019-03-23T19:06:32.485Z,99462.66
2019-03-23T19:09:05.491Z,99450.52
2019-03-23T19:11:37.413Z,99456.75
2019-03-23T19:14:12.254Z,99456.28
2019-03-23T19:16:44.678Z,99457.97
2019-03-23T19:19:17.640Z,99460.69
2019-03-23T19:21:50.587Z,99459.70
2019-03-23T19:24:23.523Z,99461.95
2019-03-23T19:26:58.127Z,99463.94
2019-03-23T19:29:30.534Z,99465.31
2019-03-23T19:32:02.699Z,99460.30
2019-03-23T19:34:37.237Z,99465.98
2019-03-23T19:37:11.613Z,99478.29
2019-03-23T19:39:43.910Z,99479.64
2019-03-23T19:42:19.116Z,99486.40
2019-03-23T19:44:53.693Z,99479.53
2019-03-23T19:47:25.563Z,99482.52
2019-03-23T19:49:58.972Z,99483.93
2019-03-23T19:52:33.515Z,99479.34
2019-03-23T19:55:05.755Z,99483.86
2019-03-23T19:57:38.938Z,99486.40
2019-03-23T20:00:13.615Z,99487.59
2019-03-23T20:02:47.551Z,99481.30
2019-03-23T20:05:20.780Z,99481.30
2019-03-23T20:07:55.391Z,99489.68
2019-03-23T20:10:29.639Z,99488.92
2019-03-23T20:13:02.697Z,99491.37
2019-03-23T20:15:40.385Z,99495.74
2019-03-23T20:18:13.654Z,99497.52
2019-03-23T20:20:46.273Z,99500.34
2019-03-23T20:23:18.168Z,99494.05
2019-03-23T20:25:50.222Z,99501.35
2019-03-23T20:28:25.741Z,99503.12
2019-03-23T20:30:57.727Z,99500.30
2019-03-23T20:33:29.952Z,99503.05
2019-03-23T20:36:04.881Z,99500.67
2019-03-23T20:38:40.551Z,99505.02
2019-03-23T20:41:15.863Z,99500.56
2019-03-23T20:43:48.862Z,99495.88
2019-03-23T20:46:20.778Z,99499.20
2019-03-23T20:48:53.941Z,99502.09
2019-03-23T20:51:25.753Z,99495.12
2019-03-23T20:54:00.317Z,99490.63
2019-03-23T20:56:34.846Z,99491.64
2019-03-23T20:59:06.922Z,99491.05
2019-03-23T21:01:41.050Z,99490.47
2019-03-23T21:04:14.146Z,99488.51
2019-03-23T21:06:50.512Z,99487.92
2019-03-23T21:09:24.044Z,99490.70
2019-03-23T21:11:56.131Z,99495.28
2019-03-23T21:14:30.031Z,99489.48
2019-03-23T21:17:03.040Z,99494.64
2019-03-23T21:19:37.180Z,99491.08
2019-03-23T21:22:11.078Z,99489.13
2019-03-23T21:24:44.077Z,99493.66
2019-03-23T21:27:17.984Z,99490.63
2019-03-23T21:29:51.377Z,99481.83
2019-03-23T21:32:24.063Z,99480.19
2019-03-23T21:34:58.034Z,99488.48
2019-03-23T21:37:29.972Z,99482.57
2019-03-23T21:40:03.167Z,99480.25
2019-03-23T21:42:36.022Z,99486.62
2019-03-23T21:45:10.157Z,99486.62
2019-03-23T21:47:44.002Z,99491.44
2019-03-23T21:50:18.239Z,99486.94
2019-03-23T21:52:51.200Z,99492.77
2019-03-23T21:55:23.583Z,99486.34
2019-03-23T21:57:57.352Z,99479.38
2019-03-23T22:00:35.936Z,99486.77
2019-03-23T22:03:08.249Z,99489.84
2019-03-23T22:05:40.743Z,99492.76
2019-03-23T22:08:17.540Z,99486.36
2019-03-23T22:10:50.998Z,99488.53
2019-03-23T22:13:24.625Z,99489.69
2019-03-23T22:16:05.123Z,99493.28
2019-03-23T22:18:37.288Z,99493.28
2019-03-23T22:21:11.363Z,99491.47
2019-03-23T22:23:45.042Z,99492.33
2019-03-23T22:26:18.395Z,99493.77
2019-03-23T22:28:52.282Z,99486.52
2019-03-23T22:31:26.301Z,99488.05
2019-03-23T22:33:59.376Z,99483.77
2019-03-23T22:36:33.327Z,99478.14
2019-03-23T22:39:07.918Z,99479.98
2019-03-23T22:41:40.309Z,99481.73
2019-03-23T22:44:14.576Z,99485.11
2019-03-23T22:46:47.392Z,99476.63
2019-03-23T22:49:20.526Z,99480.81
2019-03-23T22:51:54.286Z,99477.24
2019-03-23T22:54:29.925Z,99477.97
2019-03-23T22:57:04.487Z,99473.08
2019-03-23T22:59:37.320Z,99477.19
2019-03-23T23:02:09.224Z,99476.27
2019-03-23T23:04:42.477Z,99477.41
2019-03-23T23:07:14.398Z,99477.33
2019-03-23T23:09:47.580Z,99471.60
2019-03-23T23:12:20.400Z,99470.69
2019-03-23T23:15:03.783Z,99465.38
2019-03-23T23:17:27.646Z,99465.38
2019-03-23T23:20:00.698Z,99469.77
2019-03-23T23:22:32.535Z,99470.88
2019-03-23T23:25:05.090Z,99472.74
2019-03-23T23:27:38.570Z,99468.44
2019-03-23T23:30:11.798Z,99464.97
2019-03-23T23:32:45.545Z,99465.28
2019-03-23T23:35:19.971Z,99468.85
2019-03-23T23:37:52.651Z,99460.89
2019-03-23T23:40:26.865Z,99467.75
2019-03-23T23:43:00.735Z,99462.13
2019-03-23T23:45:33.572Z,99457.31
2019-03-23T23:48:07.748Z,99462.63
2019-03-23T23:50:40.681Z,99455.70
2019-03-23T23:53:14.567Z,99455.89
2019-03-23T23:55:47.602Z,99450.48
2019-03-23T23:58:22.117Z,99448.25
